Time;durP1;ratioP1;P1;durP2;ratioP2;P2;SDS_P1;SDS_P2;PMS_P1;PMS_P2;Temp;Humidity;BMP_temperature;BMP_pressure;BME280_temperature;BME280_humidity;BME280_pressure;Samples;Min_cycle;Max_cycle;Signal;HPM_P1;HPM_P2
2022/07/27 00:01:06;;;;;;;3.55;1.50;;;15.50;99.90;;;;;;5099412;28;20031;-61
2022/07/27 00:03:32;;;;;;;3.58;1.52;;;15.50;99.90;;;;;;5091416;28;20136;-62
2022/07/27 00:05:58;;;;;;;5.10;1.40;;;15.50;99.90;;;;;;5098212;28;20190;-61
2022/07/27 00:08:24;;;;;;;4.07;1.50;;;15.50;99.90;;;;;;5097121;28;20036;-61
2022/07/27 00:10:51;;;;;;;3.85;1.50;;;15.50;99.90;;;;;;5096782;28;20024;-61
2022/07/27 00:13:16;;;;;;;5.93;1.35;;;15.50;99.90;;;;;;5099739;28;20380;-61
2022/07/27 00:15:42;;;;;;;6.43;1.70;;;15.60;99.90;;;;;;5097654;28;20046;-62
2022/07/27 00:18:09;;;;;;;4.75;1.40;;;15.50;99.90;;;;;;5096519;28;20491;-61
2022/07/27 00:20:35;;;;;;;6.88;1.30;;;15.40;99.90;;;;;;5099494;28;20039;-61
2022/07/27 00:23:01;;;;;;;4.22;1.30;;;15.30;99.90;;;;;;5098729;28;20047;-61
2022/07/27 00:25:27;;;;;;;3.90;1.40;;;15.40;99.90;;;;;;5098223;28;20740;-61
2022/07/27 00:27:56;;;;;;;4.18;1.50;;;15.30;99.90;;;;;;5099239;28;20039;-62
2022/07/27 00:30:22;;;;;;;5.65;1.50;;;15.20;99.90;;;;;;5075533;28;20087;-62
2022/07/27 00:32:48;;;;;;;3.53;1.17;;;15.30;99.90;;;;;;5094973;28;20028;-61
2022/07/27 00:35:14;;;;;;;3.60;1.15;;;15.20;99.90;;;;;;5097957;28;20048;-62
2022/07/27 00:37:39;;;;;;;4.63;1.38;;;15.20;99.90;;;;;;5099835;28;20111;-62
2022/07/27 00:40:09;;;;;;;3.47;1.25;;;15.10;99.90;;;;;;5097423;28;20031;-61
2022/07/27 00:42:35;;;;;;;4.13;1.20;;;15.10;99.90;;;;;;5100120;28;20032;-61
2022/07/27 00:45:02;;;;;;;7.63;1.60;;;15.20;99.90;;;;;;5097538;28;20353;-62
2022/07/27 00:47:27;;;;;;;5.22;1.48;;;15.10;99.90;;;;;;5093928;28;20043;-61
2022/07/27 00:49:53;;;;;;;4.85;1.55;;;15.10;99.90;;;;;;5095297;28;20039;-61
2022/07/27 00:52:20;;;;;;;2.53;1.17;;;15.00;99.90;;;;;;5094280;28;20051;-62
2022/07/27 00:54:46;;;;;;;4.82;1.85;;;15.00;99.90;;;;;;5101944;28;20367;-61
2022/07/27 00:57:13;;;;;;;5.63;2.22;;;15.00;99.90;;;;;;5095915;28;20427;-61
2022/07/27 00:59:40;;;;;;;5.47;1.60;;;15.00;99.90;;;;;;5097492;28;20042;-61
2022/07/27 01:02:07;;;;;;;4.60;1.52;;;15.00;99.90;;;;;;5095868;28;20218;-62
2022/07/27 01:04:33;;;;;;;5.03;1.80;;;15.00;99.90;;;;;;5091790;28;20032;-62
2022/07/27 01:07:00;;;;;;;4.78;1.50;;;15.00;99.90;;;;;;5097593;28;20472;-61
2022/07/27 01:12:13;;;;;;;5.03;1.95;;;14.90;99.90;;;;;;5100715;28;20079;-62
2022/07/27 01:14:39;;;;;;;6.55;1.80;;;14.90;99.90;;;;;;5077059;28;20050;-61
2022/07/27 01:17:05;;;;;;;7.00;1.60;;;14.70;99.90;;;;;;5098941;28;20032;-62
2022/07/27 01:19:32;;;;;;;5.65;1.63;;;14.80;99.90;;;;;;5098276;28;20035;-61
2022/07/27 01:21:58;;;;;;;5.88;1.77;;;14.80;99.90;;;;;;5094418;28;20028;-61
2022/07/27 01:24:23;;;;;;;4.28;1.65;;;14.80;99.90;;;;;;5062369;28;20442;-62
2022/07/27 01:26:50;;;;;;;6.82;1.75;;;14.80;99.90;;;;;;5099585;28;20075;-61
2022/07/27 01:29:15;;;;;;;5.07;1.85;;;14.70;99.90;;;;;;5094650;28;20102;-61
2022/07/27 01:31:41;;;;;;;5.88;1.85;;;14.70;99.90;;;;;;5093218;28;20031;-61
2022/07/27 01:34:07;;;;;;;3.95;1.83;;;14.70;99.90;;;;;;5095416;28;20047;-62
2022/07/27 01:36:33;;;;;;;4.43;1.63;;;14.60;99.90;;;;;;5094553;28;20039;-61
2022/07/27 01:38:58;;;;;;;5.43;1.70;;;14.60;99.90;;;;;;5097607;28;20070;-61
2022/07/27 01:41:24;;;;;;;4.97;1.88;;;14.60;99.90;;;;;;5081061;28;20111;-62
2022/07/27 01:43:49;;;;;;;3.28;1.50;;;14.50;99.90;;;;;;5094869;28;20114;-61
2022/07/27 01:46:16;;;;;;;4.72;1.65;;;14.40;99.90;;;;;;5095654;28;20054;-62
2022/07/27 01:48:42;;;;;;;4.90;1.75;;;14.30;99.90;;;;;;5090945;28;20476;-61
2022/07/27 01:51:08;;;;;;;5.75;1.80;;;14.40;99.90;;;;;;5095600;28;20064;-61
2022/07/27 01:53:33;;;;;;;5.60;2.08;;;14.40;99.90;;;;;;5097872;28;20478;-62
2022/07/27 01:55:59;;;;;;;3.08;1.80;;;14.40;99.90;;;;;;5094894;28;20049;-61
2022/07/27 01:58:25;;;;;;;5.22;2.15;;;14.40;99.90;;;;;;5096192;28;20040;-62
2022/07/27 02:00:50;;;;;;;4.40;1.80;;;14.30;99.90;;;;;;5082164;28;20055;-62
2022/07/27 02:03:16;;;;;;;5.15;1.95;;;14.30;99.90;;;;;;5094915;28;20360;-62
2022/07/27 02:05:42;;;;;;;5.88;1.85;;;14.30;99.90;;;;;;5093642;28;20028;-62
2022/07/27 02:08:08;;;;;;;4.38;2.00;;;14.30;99.90;;;;;;5093224;28;20075;-62
2022/07/27 02:12:34;;;;;;;3.45;1.75;;;14.30;99.90;;;;;;5098188;28;20035;-62
2022/07/27 02:13:22;;;;;;;3.20;1.83;;;14.30;99.90;;;;;;5096663;28;20032;-62
2022/07/27 02:15:47;;;;;;;2.53;1.60;;;14.20;99.90;;;;;;5096553;28;20487;-62
2022/07/27 02:18:13;;;;;;;3.45;1.52;;;14.20;99.90;;;;;;5095311;28;20131;-62
2022/07/27 02:20:41;;;;;;;4.13;2.00;;;14.20;99.90;;;;;;5095543;28;20094;-62
2022/07/27 02:23:07;;;;;;;7.10;2.20;;;14.20;99.90;;;;;;5095467;28;20043;-62
2022/07/27 02:25:34;;;;;;;6.30;1.70;;;14.20;99.90;;;;;;5096454;28;20467;-62
2022/07/27 02:28:00;;;;;;;7.47;2.10;;;14.20;99.90;;;;;;5081026;28;20040;-62
2022/07/27 02:30:26;;;;;;;5.05;2.10;;;14.20;99.90;;;;;;5075041;28;20095;-62
2022/07/27 02:32:52;;;;;;;6.20;2.20;;;14.20;99.90;;;;;;5089955;28;20089;-62
2022/07/27 02:35:18;;;;;;;4.22;1.67;;;14.20;99.90;;;;;;5096424;28;20047;-62
2022/07/27 02:37:43;;;;;;;3.03;1.60;;;14.10;99.90;;;;;;5095120;28;20182;-63
2022/07/27 02:40:10;;;;;;;6.05;2.08;;;14.10;99.90;;;;;;5095273;28;20544;-61
2022/07/27 02:42:35;;;;;;;3.40;1.65;;;14.10;99.90;;;;;;5098318;28;20043;-62
2022/07/27 02:45:01;;;;;;;4.82;1.95;;;14.10;99.90;;;;;;5095618;28;20027;-62
2022/07/27 02:47:27;;;;;;;4.70;1.52;;;14.10;99.90;;;;;;5092635;28;20051;-62
2022/07/27 02:49:52;;;;;;;5.28;1.95;;;14.10;99.90;;;;;;5093233;28;20067;-62
2022/07/27 02:52:18;;;;;;;4.40;1.92;;;14.00;99.90;;;;;;5092467;28;20328;-62
2022/07/27 02:54:44;;;;;;;3.58;1.77;;;14.10;99.90;;;;;;5099597;28;20036;-63
2022/07/27 02:57:09;;;;;;;5.75;2.20;;;14.00;99.90;;;;;;5092017;28;20028;-61
2022/07/27 02:59:35;;;;;;;4.63;1.90;;;14.00;99.90;;;;;;5096363;28;20024;-62
2022/07/27 03:02:00;;;;;;;4.50;2.00;;;14.00;99.90;;;;;;5094077;28;20453;-62
2022/07/27 03:04:26;;;;;;;5.07;1.85;;;13.90;99.90;;;;;;5089166;28;20389;-63
2022/07/27 03:06:52;;;;;;;6.07;1.90;;;13.90;99.90;;;;;;5096480;28;20032;-60
2022/07/27 03:09:18;;;;;;;5.70;2.53;;;13.90;99.90;;;;;;5078318;28;20037;-61
2022/07/27 03:11:43;;;;;;;4.13;1.73;;;13.90;99.90;;;;;;5094030;28;20451;-61
2022/07/27 03:14:09;;;;;;;4.88;1.67;;;13.90;99.90;;;;;;5093753;28;20068;-62
2022/07/27 03:16:34;;;;;;;6.10;1.88;;;13.90;99.90;;;;;;5096423;28;20044;-62
2022/07/27 03:19:00;;;;;;;5.00;2.10;;;13.90;99.90;;;;;;5096846;28;20040;-61
2022/07/27 03:21:27;;;;;;;7.95;1.40;;;13.80;99.90;;;;;;5094847;28;20066;-61
2022/07/27 03:23:52;;;;;;;3.20;1.67;;;13.80;99.90;;;;;;5094145;28;20098;-61
2022/07/27 03:26:18;;;;;;;3.88;1.63;;;13.80;99.90;;;;;;5077863;28;20101;-61
2022/07/27 03:28:44;;;;;;;6.72;1.88;;;13.80;99.90;;;;;;5095753;28;20378;-61
2022/07/27 03:31:10;;;;;;;4.88;1.52;;;13.80;99.90;;;;;;5092115;28;20418;-61
2022/07/27 03:33:36;;;;;;;5.35;1.60;;;13.70;99.90;;;;;;5092131;28;20028;-61
2022/07/27 03:36:02;;;;;;;4.47;1.42;;;13.70;99.90;;;;;;5099007;28;20472;-62
2022/07/27 03:38:28;;;;;;;8.00;1.58;;;13.70;99.90;;;;;;5094680;28;20040;-61
2022/07/27 03:40:54;;;;;;;4.00;1.42;;;13.70;99.90;;;;;;5099475;28;20483;-61
2022/07/27 03:43:20;;;;;;;4.30;1.55;;;13.60;99.90;;;;;;5097199;28;20040;-61
2022/07/27 03:45:46;;;;;;;6.57;1.92;;;13.60;99.90;;;;;;5097948;28;20036;-61
2022/07/27 03:48:11;;;;;;;7.13;1.77;;;13.70;99.90;;;;;;5100025;28;20036;-62
2022/07/27 03:50:37;;;;;;;4.63;1.85;;;13.60;99.90;;;;;;5095890;28;20036;-62
2022/07/27 03:53:03;;;;;;;4.65;1.90;;;13.60;99.90;;;;;;5095421;28;20035;-61
2022/07/27 03:55:29;;;;;;;6.43;2.15;;;13.60;99.90;;;;;;5096767;28;20051;-61
2022/07/27 03:57:55;;;;;;;6.47;1.70;;;13.60;99.90;;;;;;5098381;28;20059;-62
2022/07/27 04:00:20;;;;;;;8.02;2.08;;;13.60;99.90;;;;;;5100469;28;20072;-62
2022/07/27 04:02:46;;;;;;;4.28;2.00;;;13.60;99.90;;;;;;5098089;28;20107;-62
2022/07/27 04:05:12;;;;;;;7.10;2.20;;;13.60;99.90;;;;;;5080969;28;20342;-61
2022/07/27 04:07:39;;;;;;;6.68;1.90;;;13.50;99.90;;;;;;5093151;28;20553;-63
2022/07/27 04:10:05;;;;;;;5.45;2.15;;;13.60;99.90;;;;;;5087116;28;20032;-62
2022/07/27 04:12:34;;;;;;;5.45;2.13;;;13.60;99.90;;;;;;5094306;28;20456;-63
2022/07/27 04:14:59;;;;;;;6.35;2.10;;;13.60;99.90;;;;;;5103805;28;20046;-62
2022/07/27 04:17:25;;;;;;;7.78;2.22;;;13.50;99.90;;;;;;5099852;28;20033;-62
2022/07/27 04:19:51;;;;;;;6.68;2.13;;;13.60;99.90;;;;;;5097439;28;20063;-63
2022/07/27 04:22:16;;;;;;;5.50;1.80;;;13.60;99.90;;;;;;5097505;28;20118;-62
2022/07/27 04:24:42;;;;;;;5.53;1.90;;;13.60;99.90;;;;;;5098865;28;20050;-61
2022/07/27 04:27:08;;;;;;;5.75;2.00;;;13.60;99.90;;;;;;5095759;28;20048;-62
2022/07/27 04:29:34;;;;;;;6.90;2.05;;;13.60;99.90;;;;;;5091955;28;20127;-62
2022/07/27 04:31:59;;;;;;;5.30;1.80;;;13.50;99.90;;;;;;5097388;28;20119;-62
2022/07/27 04:34:25;;;;;;;6.35;1.95;;;13.60;99.90;;;;;;5090272;28;20120;-61
2022/07/27 04:36:51;;;;;;;8.70;2.28;;;13.60;99.90;;;;;;5077866;28;20040;-62
2022/07/27 04:39:16;;;;;;;5.78;1.90;;;13.60;99.90;;;;;;5111078;28;20082;-61
2022/07/27 04:41:42;;;;;;;4.82;1.95;;;13.60;99.90;;;;;;5095186;28;20060;-61
2022/07/27 04:44:08;;;;;;;5.70;1.67;;;13.60;99.90;;;;;;5080809;28;20037;-61
2022/07/27 04:46:34;;;;;;;7.07;2.22;;;13.60;99.90;;;;;;5098560;28;20027;-61
2022/07/27 04:48:59;;;;;;;7.55;2.03;;;13.70;99.90;;;;;;5095678;28;20032;-60
2022/07/27 04:51:25;;;;;;;6.15;2.45;;;13.70;99.90;;;;;;5095108;28;20124;-61
2022/07/27 04:53:51;;;;;;;6.82;2.17;;;13.70;99.90;;;;;;5095406;28;20425;-62
2022/07/27 04:56:16;;;;;;;6.60;1.88;;;13.70;99.90;;;;;;5083376;28;20163;-62
2022/07/27 04:58:42;;;;;;;8.50;1.90;;;13.80;99.90;;;;;;5095258;28;20032;-61
2022/07/27 05:01:11;;;;;;;5.75;1.70;;;13.70;99.90;;;;;;5101161;28;20032;-62
2022/07/27 05:03:38;;;;;;;7.30;1.88;;;13.80;99.90;;;;;;5091263;28;20074;-61
2022/07/27 05:06:04;;;;;;;5.50;1.65;;;13.80;99.90;;;;;;5095851;28;20044;-61
2022/07/27 05:08:29;;;;;;;14.55;2.22;;;13.80;99.90;;;;;;5091238;28;20040;-61
2022/07/27 05:10:55;;;;;;;5.40;1.75;;;13.90;99.90;;;;;;5092266;28;20029;-61
2022/07/27 05:13:20;;;;;;;5.32;1.65;;;13.80;99.90;;;;;;5082184;28;20020;-62
2022/07/27 05:15:46;;;;;;;5.18;1.67;;;13.80;99.90;;;;;;5082848;28;20523;-61
2022/07/27 05:18:12;;;;;;;6.90;1.60;;;13.90;99.90;;;;;;5086780;28;20031;-61
2022/07/27 05:20:37;;;;;;;6.97;1.85;;;14.00;99.90;;;;;;5088929;28;20076;-61
2022/07/27 05:23:03;;;;;;;6.60;1.83;;;14.10;99.90;;;;;;5094589;28;20130;-61
2022/07/27 05:25:29;;;;;;;8.32;1.83;;;14.10;99.90;;;;;;5101061;28;20043;-61
2022/07/27 05:27:55;;;;;;;6.50;1.67;;;14.20;99.90;;;;;;5099177;28;20111;-63
2022/07/27 05:30:22;;;;;;;5.60;1.70;;;14.40;99.90;;;;;;5095149;28;20578;-62
2022/07/27 05:32:48;;;;;;;8.90;1.60;;;14.60;99.90;;;;;;5094010;28;20127;-61
2022/07/27 05:35:13;;;;;;;9.90;2.17;;;15.10;99.90;;;;;;5094799;28;20442;-61
2022/07/27 05:37:39;;;;;;;12.43;2.35;;;15.30;99.90;;;;;;5097877;28;20055;-62
2022/07/27 05:40:09;;;;;;;7.00;1.45;;;15.40;99.90;;;;;;5097673;28;20035;-62
2022/07/27 05:42:35;;;;;;;7.05;1.50;;;15.50;99.90;;;;;;5073998;28;20041;-61
2022/07/27 05:45:00;;;;;;;7.15;1.70;;;15.40;99.90;;;;;;5074229;28;20043;-62
2022/07/27 05:47:26;;;;;;;9.25;2.33;;;15.40;99.90;;;;;;5085833;28;20377;-60
2022/07/27 05:49:51;;;;;;;6.03;2.03;;;15.50;99.90;;;;;;5087188;28;20032;-63
2022/07/27 05:52:19;;;;;;;9.20;1.75;;;15.90;99.90;;;;;;5077842;28;20086;-61
2022/07/27 05:54:45;;;;;;;5.07;1.63;;;16.30;99.90;;;;;;5095291;28;20028;-59
2022/07/27 05:57:14;;;;;;;4.78;1.60;;;16.40;99.90;;;;;;5078706;28;20072;-61
2022/07/27 05:59:39;;;;;;;3.35;1.42;;;16.50;99.90;;;;;;5096601;28;20039;-60
2022/07/27 06:02:05;;;;;;;4.50;1.45;;;16.30;99.90;;;;;;5092820;28;20033;-59
2022/07/27 06:04:31;;;;;;;3.75;1.77;;;16.20;99.90;;;;;;5093194;28;20042;-59
2022/07/27 06:09:44;;;;;;;5.22;1.60;;;16.00;99.90;;;;;;5086286;28;20072;-59
2022/07/27 06:12:13;;;;;;;3.80;1.50;;;15.90;99.90;;;;;;5084745;28;20398;-60
2022/07/27 06:14:39;;;;;;;6.18;1.70;;;16.00;99.90;;;;;;5071758;28;20110;-60
2022/07/27 06:17:06;;;;;;;8.02;1.92;;;16.10;99.90;;;;;;5087153;28;20032;-58
2022/07/27 06:19:32;;;;;;;5.13;1.70;;;16.10;99.90;;;;;;5066602;28;20407;-59
2022/07/27 06:21:58;;;;;;;20.92;4.00;;;16.10;99.90;;;;;;5071786;28;20094;-58
2022/07/27 06:24:24;;;;;;;10.63;2.17;;;16.20;99.90;;;;;;5070669;28;20124;-59
2022/07/27 06:26:51;;;;;;;5.13;1.95;;;16.30;99.90;;;;;;5069008;28;20437;-59
2022/07/27 06:29:17;;;;;;;7.85;1.70;;;16.40;99.90;;;;;;5083937;28;20090;-59
2022/07/27 06:31:42;;;;;;;7.57;2.03;;;16.50;99.90;;;;;;5095084;28;20400;-58
2022/07/27 06:34:08;;;;;;;8.13;1.98;;;16.50;99.90;;;;;;5091445;28;20039;-58
2022/07/27 06:36:34;;;;;;;5.25;1.90;;;16.40;99.90;;;;;;5096020;28;20028;-58
2022/07/27 06:39:00;;;;;;;6.38;1.75;;;16.40;99.90;;;;;;5093225;28;20040;-58
2022/07/27 06:41:25;;;;;;;7.97;2.63;;;16.50;99.90;;;;;;5083499;28;20036;-58
2022/07/27 06:43:51;;;;;;;8.73;2.38;;;16.40;99.90;;;;;;5101964;28;20487;-59
2022/07/27 06:46:16;;;;;;;9.07;1.95;;;16.30;99.90;;;;;;5097521;28;20055;-58
2022/07/27 06:48:42;;;;;;;7.80;1.65;;;16.30;99.90;;;;;;5072058;28;20095;-60
2022/07/27 06:51:11;;;;;;;6.78;2.15;;;16.40;99.90;;;;;;5079111;28;20480;-61
2022/07/27 06:53:37;;;;;;;7.07;1.90;;;16.60;99.90;;;;;;5098543;28;20028;-59
2022/07/27 06:56:03;;;;;;;8.27;1.85;;;16.80;99.90;;;;;;5099890;28;20031;-59
2022/07/27 06:58:31;;;;;;;6.90;2.22;;;16.90;99.90;;;;;;5098548;28;20119;-59
2022/07/27 07:00:58;;;;;;;10.75;2.13;;;17.00;99.90;;;;;;5102178;28;20485;-59
2022/07/27 07:03:24;;;;;;;5.43;1.80;;;17.20;99.90;;;;;;5097837;28;20029;-59
2022/07/27 07:05:50;;;;;;;6.05;2.10;;;17.60;99.90;;;;;;5095491;28;20352;-59
2022/07/27 07:08:16;;;;;;;10.18;2.55;;;18.10;99.90;;;;;;5080073;28;20272;-59
2022/07/27 07:10:43;;;;;;;7.20;1.90;;;18.60;99.90;;;;;;5091710;28;20383;-59
2022/07/27 07:13:10;;;;;;;10.65;2.25;;;19.10;99.90;;;;;;5097087;28;20078;-59
2022/07/27 07:15:38;;;;;;;7.30;1.83;;;19.70;99.90;;;;;;5100945;28;20042;-59
2022/07/27 07:18:05;;;;;;;2.35;1.27;;;20.20;99.90;;;;;;5096545;28;20072;-59
2022/07/27 07:20:31;;;;;;;5.25;1.67;;;20.30;99.90;;;;;;5098984;28;20507;-59
2022/07/27 07:22:58;;;;;;;6.72;1.90;;;20.10;99.90;;;;;;5101455;28;20048;-60
2022/07/27 07:25:24;;;;;;;5.13;1.80;;;20.10;99.90;;;;;;5099505;28;20040;-60
2022/07/27 07:27:50;;;;;;;8.88;1.70;;;20.00;99.90;;;;;;5100183;28;20038;-59
2022/07/27 07:30:15;;;;;;;9.07;1.88;;;19.90;99.90;;;;;;5096527;28;20450;-59
2022/07/27 07:32:41;;;;;;;6.47;1.63;;;19.90;99.90;;;;;;5097470;28;20432;-60
2022/07/27 07:35:07;;;;;;;5.07;1.50;;;20.10;99.90;;;;;;5097622;28;20040;-60
2022/07/27 07:37:33;;;;;;;4.18;1.50;;;20.30;99.90;;;;;;5097114;28;20039;-59
2022/07/27 07:39:59;;;;;;;8.52;1.65;;;20.40;99.90;;;;;;5100430;28;20233;-60
2022/07/27 07:42:25;;;;;;;5.03;1.60;;;20.40;99.90;;;;;;5099694;28;20043;-59
2022/07/27 07:44:51;;;;;;;6.45;2.03;;;20.40;99.90;;;;;;5097889;28;20021;-60
2022/07/27 07:47:16;;;;;;;7.25;1.90;;;20.20;99.90;;;;;;5091279;28;20467;-61
2022/07/27 07:49:42;;;;;;;9.43;2.05;;;20.30;99.90;;;;;;5102207;28;20036;-60
2022/07/27 07:52:08;;;;;;;4.93;1.90;;;20.40;99.90;;;;;;5094806;28;20055;-60
2022/07/27 07:54:34;;;;;;;4.45;1.30;;;20.40;99.90;;;;;;5098922;28;20133;-59
2022/07/27 07:57:00;;;;;;;8.77;1.60;;;20.40;99.90;;;;;;5099370;28;20063;-59
2022/07/27 07:59:25;;;;;;;5.50;1.40;;;20.50;99.90;;;;;;5099439;28;20044;-60
2022/07/27 08:01:51;;;;;;;4.50;1.55;;;20.60;99.90;;;;;;5101724;28;20032;-60
2022/07/27 08:04:17;;;;;;;7.25;1.63;;;20.70;99.90;;;;;;5094240;28;20097;-59
2022/07/27 08:06:42;;;;;;;6.25;1.33;;;20.70;99.90;;;;;;5078172;28;20066;-60
2022/07/27 08:09:08;;;;;;;3.33;1.15;;;20.80;99.90;;;;;;5092800;28;20067;-61
2022/07/27 08:11:36;;;;;;;7.35;1.40;;;20.70;99.90;;;;;;5082157;28;20028;-60
2022/07/27 08:14:03;;;;;;;5.30;1.23;;;20.70;99.90;;;;;;5081540;28;20067;-61
2022/07/27 08:16:29;;;;;;;4.60;1.63;;;20.80;99.90;;;;;;5080515;28;20053;-61
2022/07/27 08:18:54;;;;;;;10.18;1.70;;;20.80;99.90;;;;;;5081862;28;20471;-61
2022/07/27 08:21:20;;;;;;;6.03;1.67;;;20.70;99.90;;;;;;5085808;28;20037;-60
2022/07/27 08:23:46;;;;;;;6.07;1.17;;;20.60;99.90;;;;;;5059890;28;20040;-60
2022/07/27 08:26:11;;;;;;;3.15;1.20;;;20.50;99.70;;;;;;5089722;28;20059;-61
2022/07/27 08:28:37;;;;;;;5.90;1.60;;;20.40;99.60;;;;;;5092622;28;20053;-60
2022/07/27 08:31:03;;;;;;;4.70;1.35;;;20.60;99.80;;;;;;5095951;28;20086;-60
2022/07/27 08:33:28;;;;;;;2.60;1.27;;;20.40;99.50;;;;;;5097099;28;20028;-60
2022/07/27 08:35:56;;;;;;;5.53;1.55;;;20.40;99.50;;;;;;5097729;28;20484;-60
2022/07/27 08:38:22;;;;;;;3.42;1.50;;;20.50;99.60;;;;;;5097892;28;20040;-60
2022/07/27 08:40:49;;;;;;;6.10;1.55;;;20.70;99.50;;;;;;5102409;28;20131;-60
2022/07/27 08:43:16;;;;;;;5.97;1.15;;;20.70;99.40;;;;;;5098801;28;20541;-60
2022/07/27 08:45:44;;;;;;;6.07;1.60;;;20.70;99.30;;;;;;5096095;28;20040;-62
2022/07/27 08:48:14;;;;;;;7.43;1.60;;;20.60;99.50;;;;;;5100367;28;20059;-60
2022/07/27 08:50:40;;;;;;;5.95;1.48;;;20.40;99.50;;;;;;5098084;28;20028;-60
2022/07/27 08:53:11;;;;;;;5.68;1.48;;;20.10;99.90;;;;;;5095710;28;20090;-59
2022/07/27 08:55:42;;;;;;;5.60;1.50;;;19.90;99.90;;;;;;5093304;28;20111;-59
2022/07/27 08:58:10;;;;;;;3.60;1.35;;;19.70;99.90;;;;;;5095686;28;20131;-60
2022/07/27 09:00:42;;;;;;;5.60;1.60;;;19.80;99.90;;;;;;5099523;28;20032;-60
2022/07/27 09:03:12;;;;;;;4.95;1.55;;;20.00;99.80;;;;;;5091660;28;20700;-60
2022/07/27 09:05:43;;;;;;;4.78;1.52;;;19.90;98.90;;;;;;5097917;28;20035;-60
2022/07/27 09:08:20;;;;;;;3.92;1.40;;;20.30;99.20;;;;;;5099327;28;20484;-60
2022/07/27 09:10:46;;;;;;;3.95;1.30;;;20.40;98.80;;;;;;5096160;28;20051;-60
2022/07/27 09:13:32;;;;;;;5.22;1.60;;;20.70;98.70;;;;;;5098376;28;20059;-61
2022/07/27 09:16:00;;;;;;;3.17;1.30;;;21.10;98.20;;;;;;5099502;28;20028;-60
2022/07/27 09:18:29;;;;;;;1.95;1.20;;;21.10;97.70;;;;;;5095727;28;20071;-60
2022/07/27 09:21:20;;;;;;;3.90;1.10;;;21.20;97.80;;;;;;5093307;28;20043;-60
2022/07/27 09:23:51;;;;;;;5.53;1.60;;;21.20;97.30;;;;;;5097093;28;20079;-59
2022/07/27 09:26:22;;;;;;;4.05;1.40;;;21.00;97.40;;;;;;5095575;28;20043;-60
2022/07/27 09:29:01;;;;;;;3.45;1.20;;;20.80;97.70;;;;;;5089405;28;20104;-60
2022/07/27 09:31:28;;;;;;;4.55;1.30;;;20.40;97.70;;;;;;5098044;28;20133;-60
2022/07/27 09:33:56;;;;;;;5.32;1.42;;;20.30;98.40;;;;;;5098039;28;20031;-61
2022/07/27 09:36:25;;;;;;;3.85;1.33;;;20.40;98.00;;;;;;5077492;28;20496;-60
2022/07/27 09:39:04;;;;;;;3.92;1.40;;;20.70;97.70;;;;;;5095696;28;20101;-60
2022/07/27 09:41:44;;;;;;;3.20;1.27;;;21.00;97.20;;;;;;5102188;28;20039;-60
2022/07/27 09:44:10;;;;;;;4.63;1.48;;;21.10;97.30;;;;;;5098065;28;20126;-60
2022/07/27 09:46:42;;;;;;;5.35;1.50;;;21.20;97.30;;;;;;5094177;28;20489;-60
2022/07/27 09:49:33;;;;;;;4.18;1.10;;;21.10;97.20;;;;;;5093332;28;20373;-61
2022/07/27 09:52:00;;;;;;;2.67;1.17;;;20.90;97.30;;;;;;5075089;28;20426;-60
2022/07/27 09:54:26;;;;;;;4.97;1.33;;;20.80;97.70;;;;;;5096330;28;20039;-60
2022/07/27 09:57:02;;;;;;;3.67;1.40;;;20.70;97.90;;;;;;5097029;28;20031;-60
2022/07/27 09:59:29;;;;;;;4.00;1.38;;;20.40;98.20;;;;;;5096519;28;20130;-60
2022/07/27 10:01:56;;;;;;;4.07;1.25;;;20.50;98.40;;;;;;5096351;28;20032;-61
2022/07/27 10:04:22;;;;;;;4.00;1.17;;;20.60;98.40;;;;;;5075472;28;20080;-60
2022/07/27 10:06:48;;;;;;;3.72;1.30;;;20.50;98.50;;;;;;5093644;28;20135;-60
2022/07/27 10:09:14;;;;;;;8.45;1.63;;;20.50;99.30;;;;;;5094942;28;20196;-60
2022/07/27 10:11:40;;;;;;;7.32;1.75;;;20.80;99.90;;;;;;5077422;28;20044;-60
2022/07/27 10:14:06;;;;;;;4.45;1.35;;;20.90;99.90;;;;;;5095447;28;20035;-60
2022/07/27 10:16:33;;;;;;;5.82;1.38;;;21.10;99.90;;;;;;5096017;28;20035;-60
2022/07/27 10:19:20;;;;;;;4.10;1.30;;;21.20;99.80;;;;;;5094501;28;20044;-60
2022/07/27 10:21:47;;;;;;;3.90;1.23;;;21.30;99.10;;;;;;5085576;28;20033;-60
2022/07/27 10:24:35;;;;;;;6.35;1.63;;;21.30;99.30;;;;;;5091774;28;20105;-60
2022/07/27 10:27:29;;;;;;;6.53;1.33;;;21.10;99.70;;;;;;5093071;28;20074;-60
2022/07/27 10:29:57;;;;;;;3.38;1.70;;;21.20;99.50;;;;;;5060094;28;20048;-61
2022/07/27 10:32:25;;;;;;;6.82;1.90;;;21.10;99.80;;;;;;5093658;28;20032;-61
2022/07/27 10:34:50;;;;;;;6.10;1.40;;;21.20;99.50;;;;;;5094946;28;20037;-60
2022/07/27 10:37:22;;;;;;;3.38;1.15;;;21.20;99.70;;;;;;5094971;28;20032;-59
2022/07/27 10:43:07;;;;;;;5.60;1.23;;;20.90;99.80;;;;;;5099206;28;20051;-60
2022/07/27 10:45:53;;;;;;;3.55;1.45;;;20.90;99.60;;;;;;5089977;28;20098;-61
2022/07/27 10:48:38;;;;;;;3.67;1.40;;;20.90;99.50;;;;;;5082785;28;20066;-60
2022/07/27 10:51:09;;;;;;;4.70;1.33;;;21.10;99.70;;;;;;5082407;28;20345;-60
2022/07/27 10:53:40;;;;;;;3.17;1.50;;;21.00;99.50;;;;;;5079796;28;20440;-59
2022/07/27 10:56:07;;;;;;;2.60;1.17;;;21.10;99.30;;;;;;5100398;28;20368;-59
2022/07/27 10:58:33;;;;;;;2.83;1.00;;;21.00;99.10;;;;;;5098390;28;20102;-60
2022/07/27 11:00:58;;;;;;;4.03;1.52;;;20.80;98.70;;;;;;5097157;28;20194;-60
2022/07/27 11:03:31;;;;;;;5.00;1.50;;;20.70;98.70;;;;;;5097377;28;20051;-60
2022/07/27 11:06:11;;;;;;;3.55;1.13;;;20.90;98.70;;;;;;5092941;28;20307;-60
2022/07/27 11:08:41;;;;;;;3.35;1.23;;;21.20;98.40;;;;;;5097103;28;20036;-60
2022/07/27 11:11:09;;;;;;;4.80;1.50;;;21.60;98.40;;;;;;5100946;28;20038;-59
2022/07/27 11:13:35;;;;;;;5.03;1.30;;;21.90;97.90;;;;;;5102884;28;20424;-59
2022/07/27 11:16:07;;;;;;;5.18;1.50;;;22.00;97.40;;;;;;5099214;28;20373;-59
2022/07/27 11:18:35;;;;;;;4.35;1.23;;;22.30;97.00;;;;;;5093180;28;20482;-60
2022/07/27 11:21:37;;;;;;;5.93;1.25;;;22.50;95.60;;;;;;5098133;28;20407;-60
2022/07/27 11:24:16;;;;;;;5.90;1.50;;;22.40;95.40;;;;;;5036900;28;20052;-60
2022/07/27 11:26:48;;;;;;;4.70;1.17;;;22.60;96.00;;;;;;5067238;28;20044;-60
2022/07/27 11:29:15;;;;;;;3.58;1.60;;;22.50;95.30;;;;;;5074052;28;20043;-60
2022/07/27 11:31:43;;;;;;;3.53;1.17;;;22.50;95.70;;;;;;5076524;28;20095;-60
2022/07/27 11:34:10;;;;;;;2.35;1.10;;;22.40;96.00;;;;;;5078083;28;20037;-61
2022/07/27 11:36:41;;;;;;;6.30;1.40;;;22.50;96.10;;;;;;5080420;28;20028;-60
2022/07/27 11:39:13;;;;;;;5.25;1.40;;;22.50;96.00;;;;;;5076264;28;20083;-60
2022/07/27 11:41:39;;;;;;;5.70;1.40;;;22.20;95.90;;;;;;5077413;28;20421;-60
2022/07/27 11:44:10;;;;;;;3.92;1.08;;;22.10;96.00;;;;;;5077039;28;20051;-60
2022/07/27 11:46:41;;;;;;;8.73;1.83;;;22.00;95.80;;;;;;5073616;28;20468;-60
2022/07/27 11:49:09;;;;;;;4.38;1.17;;;22.30;95.60;;;;;;5074811;28;20037;-60
2022/07/27 11:51:47;;;;;;;4.82;1.67;;;22.30;95.00;;;;;;5073928;28;20445;-61
2022/07/27 11:54:22;;;;;;;4.30;1.00;;;22.70;93.70;;;;;;5074033;28;20445;-60
2022/07/27 11:56:59;;;;;;;4.20;1.20;;;22.90;93.60;;;;;;5060093;28;20052;-60
2022/07/27 11:59:32;;;;;;;4.68;1.40;;;22.90;93.90;;;;;;5060127;28;20471;-60
2022/07/27 12:02:02;;;;;;;2.88;1.38;;;22.80;93.90;;;;;;5076653;28;20050;-60
2022/07/27 12:04:30;;;;;;;4.20;1.10;;;22.80;94.20;;;;;;5076997;28;20043;-60
2022/07/27 12:07:00;;;;;;;3.80;1.20;;;23.10;94.50;;;;;;5077788;28;20052;-60
2022/07/27 12:09:27;;;;;;;10.38;2.03;;;23.40;94.60;;;;;;5074609;28;20548;-61
2022/07/27 12:12:09;;;;;;;4.22;1.45;;;23.30;95.20;;;;;;5074254;28;20036;-61
2022/07/27 12:14:42;;;;;;;7.35;1.40;;;23.50;95.60;;;;;;5077036;28;20473;-60
2022/07/27 12:17:12;;;;;;;4.20;1.60;;;23.60;95.10;;;;;;5067051;28;20041;-60
2022/07/27 12:19:39;;;;;;;6.32;1.30;;;23.40;95.40;;;;;;5072556;28;20396;-60
2022/07/27 12:22:05;;;;;;;5.15;1.60;;;23.40;95.30;;;;;;5059389;28;20119;-61
2022/07/27 12:24:32;;;;;;;3.38;1.23;;;23.30;95.50;;;;;;5095651;28;20049;-59
2022/07/27 12:27:06;;;;;;;4.30;0.90;;;22.90;94.60;;;;;;5078611;28;20037;-60
2022/07/27 12:29:31;;;;;;;3.10;1.27;;;22.80;94.20;;;;;;5083352;28;20066;-59
2022/07/27 12:32:02;;;;;;;2.70;1.00;;;22.90;93.60;;;;;;5095295;28;20501;-59
2022/07/27 12:34:34;;;;;;;2.83;1.10;;;22.90;93.40;;;;;;5078173;28;20044;-59
2022/07/27 12:37:10;;;;;;;2.73;0.90;;;22.70;93.40;;;;;;5095515;28;20048;-59
2022/07/27 12:39:35;;;;;;;3.40;1.10;;;22.90;94.00;;;;;;5093385;28;20092;-59
2022/07/27 12:42:05;;;;;;;6.18;1.40;;;22.90;94.30;;;;;;5100136;28;20447;-60
2022/07/27 12:44:32;;;;;;;6.05;1.52;;;22.70;94.50;;;;;;5091258;28;20040;-59
2022/07/27 12:47:00;;;;;;;3.60;1.20;;;22.80;94.40;;;;;;5080043;28;20112;-63
2022/07/27 12:49:33;;;;;;;4.70;1.23;;;22.90;93.10;;;;;;5096684;28;20036;-60
2022/07/27 12:52:09;;;;;;;1.45;0.98;;;22.90;92.80;;;;;;5091414;28;20032;-59
2022/07/27 12:54:36;;;;;;;2.53;1.10;;;23.00;93.00;;;;;;5097719;28;20036;-60
2022/07/27 12:57:03;;;;;;;5.47;1.08;;;22.90;92.30;;;;;;5078682;28;20111;-59